Hegina — 3ETX2 — position and weather

sailwx.info

Track history (hours):
 
Tides and Currents Weather Stations Pressure Air Temp Water Temp Dewpoint Dewpoint Depression Visibility Wind Speed Wind Dir Waves Ship Positions

Hegina

Last reported at 2014-Aug-21 04:33 UTC. Time now 2014-Aug-23 15:25 UTC.
Position N 35°02' W 007°11'.

Length 138 m; draft 8.8 m.

Type: Cargo ship. MMSI: 372427000.

Date/timePositionNaut miles runAvg speedWind from/ knotsBaromVisibWave heightAir tempDewpointWater temp
2014-Aug-21 04:33N 35°02' W 007°11'10212.1
2014-Aug-20 20:08N 35°59' W 005°28'6 9.8
2014-Aug-20 19:33N 36°01' W 005°21'26511.5
2014-Aug-19 20:24N 36°58' E 000°02'14612.0
2014-Aug-19 08:17N 37°26' E 003°01'8212.2
2014-Aug-19 01:32N 37°30' E 004°44'2512.3
2014-Aug-18 23:33N 37°31' E 005°15'4013.0
2014-Aug-18 20:27N 37°32' E 006°06'1312.8
2014-Aug-18 19:24N 37°33' E 006°23'6412.1
2014-Aug-18 14:07N 37°35' E 007°43'3212.4
2014-Aug-18 11:33N 37°36' E 008°24'1312.8
2014-Aug-18 10:33N 37°36' E 008°40'1212.4
2014-Aug-18 09:33N 37°37' E 008°55'1212.4
2014-Aug-18 08:33N 37°37' E 009°11'1212.3
2014-Aug-18 07:32N 37°38' E 009°27'1212.2
2014-Aug-18 06:33N 37°38' E 009°42'1211.8
2014-Aug-18 05:32N 37°39' E 009°57'1211.7
2014-Aug-18 04:30N 37°39' E 010°12'1612.2
2014-Aug-18 03:12N 37°36' E 010°32'15612.4
2014-Aug-17 14:33N 36°51' E 013°40'1211.8
2014-Aug-17 13:33N 36°48' E 013°54'1211.5
2014-Aug-17 12:33N 36°45' E 014°08'1111.3
2014-Aug-17 11:33N 36°42' E 014°22'1111.4
2014-Aug-17 10:33N 36°39' E 014°36'41911.8
2014-Aug-15 23:12N 36°28' E 023°17'913.4
2014-Aug-15 22:33N 36°36' E 023°22'1912.9
2014-Aug-15 21:05N 36°52' E 023°35'712.9
2014-Aug-15 20:32N 36°57' E 023°40'1212.6
2014-Aug-15 19:33N 37°08' E 023°48'1212.5
2014-Aug-15 18:33N 37°19' E 023°56'1313.0
2014-Aug-15 17:33N 37°29' E 024°05'1713.0
2014-Aug-15 16:14N 37°44' E 024°17'812.4
2014-Aug-15 15:33N 37°50' E 024°25'4811.9
2014-Aug-15 11:29N 38°31' E 024°56'1212.2
2014-Aug-15 10:33N 38°42' E 025°02'1812.2
2014-Aug-15 09:06N 38°58' E 025°12'711.9
2014-Aug-15 08:33N 39°04' E 025°16'13312.0
2014-Aug-14 21:31N 40°38' E 027°17'2812.8
2014-Aug-14 19:20N 40°48' E 027°51'1012.8
2014-Aug-14 18:33N 40°49' E 028°05'3812.5
2014-Aug-14 15:29N 40°56' E 028°55'352 8.6
2014-Aug-12 22:27N 43°51' E 035°48'1212.8
2014-Aug-12 21:33N 43°56' E 036°03'30 7.0
2014-Aug-12 17:14N 44°10' E 036°40'59 4.3
2014-Aug-12 03:33N 44°42' E 037°49'1 0.9
2014-Aug-12 02:29N 44°43' E 037°49'0 0.0
2014-Aug-12 01:29N 44°43' E 037°49'0 0.0
2014-Aug-12 00:29N 44°43' E 037°49'0 0.0
2014-Aug-11 23:29N 44°43' E 037°49'0 0.0
2014-Aug-11 22:23N 44°43' E 037°49'0 0.0
2014-Aug-11 21:29N 44°43' E 037°49'0 0.0
2014-Aug-11 16:08N 44°43' E 037°49'0 0.0
2014-Aug-11 11:26N 44°43' E 037°49'0 0.0
2014-Aug-11 07:26N 44°43' E 037°49'0 0.0
2014-Aug-11 05:08N 44°43' E 037°49'  
Track history (hours):
 
Tides and Currents Weather Stations Pressure Air Temp Water Temp Dewpoint Dewpoint Depression Visibility Wind Speed Wind Dir Waves Ship Positions

Hegina

Last reported at 2014-Aug-21 04:33 UTC. Time now 2014-Aug-23 15:25 UTC.
Position N 35°02' W 007°11'.

Length 138 m; draft 8.8 m.

Type: Cargo ship. MMSI: 372427000.

Date/timePositionNaut miles runAvg speedWind from/ knotsBaromVisibWave heightAir tempDewpointWater temp
2014-Aug-21 04:33N 35°02' W 007°11'10212.1
2014-Aug-20 20:08N 35°59' W 005°28'6 9.8
2014-Aug-20 19:33N 36°01' W 005°21'26511.5
2014-Aug-19 20:24N 36°58' E 000°02'14612.0
2014-Aug-19 08:17N 37°26' E 003°01'8212.2
2014-Aug-19 01:32N 37°30' E 004°44'2512.3
2014-Aug-18 23:33N 37°31' E 005°15'4013.0
2014-Aug-18 20:27N 37°32' E 006°06'1312.8
2014-Aug-18 19:24N 37°33' E 006°23'6412.1
2014-Aug-18 14:07N 37°35' E 007°43'3212.4
2014-Aug-18 11:33N 37°36' E 008°24'1312.8
2014-Aug-18 10:33N 37°36' E 008°40'1212.4
2014-Aug-18 09:33N 37°37' E 008°55'1212.4
2014-Aug-18 08:33N 37°37' E 009°11'1212.3
2014-Aug-18 07:32N 37°38' E 009°27'1212.2
2014-Aug-18 06:33N 37°38' E 009°42'1211.8
2014-Aug-18 05:32N 37°39' E 009°57'1211.7
2014-Aug-18 04:30N 37°39' E 010°12'1612.2
2014-Aug-18 03:12N 37°36' E 010°32'15612.4
2014-Aug-17 14:33N 36°51' E 013°40'1211.8
2014-Aug-17 13:33N 36°48' E 013°54'1211.5
2014-Aug-17 12:33N 36°45' E 014°08'1111.3
2014-Aug-17 11:33N 36°42' E 014°22'1111.4
2014-Aug-17 10:33N 36°39' E 014°36'41911.8
2014-Aug-15 23:12N 36°28' E 023°17'913.4
2014-Aug-15 22:33N 36°36' E 023°22'1912.9
2014-Aug-15 21:05N 36°52' E 023°35'712.9
2014-Aug-15 20:32N 36°57' E 023°40'1212.6
2014-Aug-15 19:33N 37°08' E 023°48'1212.5
2014-Aug-15 18:33N 37°19' E 023°56'1313.0
2014-Aug-15 17:33N 37°29' E 024°05'1713.0
2014-Aug-15 16:14N 37°44' E 024°17'812.4
2014-Aug-15 15:33N 37°50' E 024°25'4811.9
2014-Aug-15 11:29N 38°31' E 024°56'1212.2
2014-Aug-15 10:33N 38°42' E 025°02'1812.2
2014-Aug-15 09:06N 38°58' E 025°12'711.9
2014-Aug-15 08:33N 39°04' E 025°16'13312.0
2014-Aug-14 21:31N 40°38' E 027°17'2812.8
2014-Aug-14 19:20N 40°48' E 027°51'1012.8
2014-Aug-14 18:33N 40°49' E 028°05'3812.5
2014-Aug-14 15:29N 40°56' E 028°55'352 8.6
2014-Aug-12 22:27N 43°51' E 035°48'1212.8
2014-Aug-12 21:33N 43°56' E 036°03'30 7.0
2014-Aug-12 17:14N 44°10' E 036°40'59 4.3
2014-Aug-12 03:33N 44°42' E 037°49'1 0.9
2014-Aug-12 02:29N 44°43' E 037°49'0 0.0
2014-Aug-12 01:29N 44°43' E 037°49'0 0.0
2014-Aug-12 00:29N 44°43' E 037°49'0 0.0
2014-Aug-11 23:29N 44°43' E 037°49'0 0.0
2014-Aug-11 22:23N 44°43' E 037°49'0 0.0
2014-Aug-11 21:29N 44°43' E 037°49'0 0.0
2014-Aug-11 16:08N 44°43' E 037°49'0 0.0
2014-Aug-11 11:26N 44°43' E 037°49'0 0.0
2014-Aug-11 07:26N 44°43' E 037°49'0 0.0
2014-Aug-11 05:08N 44°43' E 037°49'  

Dump ship's entire track history